Aérodrome :
LOGIN :

S'inscrire | Disclaimer

   EN    FR    IT 

 










Légende :    VFR   VFR Marginal   IFR   IFR Intensif   IFR Très Intensif
Visi : 
Plafond : 
>= 8 km
>= 3000ft
5 à 8 km
1000 à 3000 ft
1500m à 5 km
500 à 1000 ft
800 à 1500m
200 à 500 ft
< 800m
< 200 ft
Symboles :   Orages  Brouillard  Fortes neiges  Fortes précipitations  Vent > 20 kt
SIGMETs :   Divers  Orages  Givrage  Turbulence  Onde Orograph.  Cendres Volcan.






- Altitude de l'aérodrome : 616 ft
- Code IATA : PUF


LFBP - Pau

DERNIER METAR :
  • 272130Z AUTO 25005KT 9000 -RA BKN007 BKN012 OVC025 11/11 Q1021 NOSIG

METARs EXPIRÉS :
  • 272100Z AUTO 26007KT 5000 -RA BR OVC006 11/10 Q1021 NOSIG
  • 272030Z AUTO 26010KT 9999 OVC008 11/11 Q1021 NOSIG
  • 272000Z AUTO 27012KT 9999 BKN009 BKN017 BKN027 11/11 Q1021 NOSIG
  • 271930Z AUTO 28013KT 9999 -RADZ FEW005/// BKN009/// BKN013/// ///TCU 11/11 Q1020 BECMG BKN009 OVC020
  • 271900Z AUTO 29013KT 4300 -RA BR BKN006/// BKN012/// OVC024/// ///TCU 12/11 Q1020 TEMPO 24015G25KT BECMG 5000 -RA BKN009 OVC020

TAF TAF LFBP
Valide du 27 à 18h jusqu'au 28 à 18h UTC


271700Z 2718/2818 24012KT 5000 -RA BKN009 OVC020
PROB30
TEMPO 2718/2720 24015G25KT 2500 RA OVC005
BECMG 2720/2722 24005KT
BECMG 2804/2806 9999 NSW BKN012
BECMG 2808/2810 VRB03KT CAVOK
BECMG 2816/2818 09010KT



MET'MAP, la Météo Aéronautique d'un coup d'oeil ! - Copyright ORBIFLY Décembre 2007 - Disclaimer

ORBIFLY MET'MAP TEAM :

Programmation & Développement : Alexandra Zaïnal
Sur une idée originale de : Baudouin d'Aumeries
Assistance à la programmation : Marc-Olivier Méhu
Soutien technique & logistique : Manuel Goepfert

Contact : metmap@orbifly.com




SOURCES & CREDITS :

   NOAA